sensor_id;sensor_type;location;lat;lon;timestamp;pressure;altitude;pressure_sealevel;temperature;humidity
35952;BME280;22035;51.406;16.194;2022-12-31T00:01:48;99540.13;;;27.20;20.76
35952;BME280;22035;51.406;16.194;2022-12-31T00:04:14;99536.16;;;27.17;20.79
35952;BME280;22035;51.406;16.194;2022-12-31T00:06:40;99535.06;;;27.16;20.69
35952;BME280;22035;51.406;16.194;2022-12-31T00:09:06;99535.30;;;27.19;20.77
35952;BME280;22035;51.406;16.194;2022-12-31T00:11:33;99536.16;;;27.19;20.76
35952;BME280;22035;51.406;16.194;2022-12-31T00:13:59;99535.61;;;27.16;20.81
35952;BME280;22035;51.406;16.194;2022-12-31T00:16:27;99535.05;;;27.19;20.77
35952;BME280;22035;51.406;16.194;2022-12-31T00:18:55;99547.56;;;27.16;20.81
35952;BME280;22035;51.406;16.194;2022-12-31T00:21:21;99555.50;;;27.19;20.78
35952;BME280;22035;51.406;16.194;2022-12-31T00:23:47;99556.31;;;27.18;20.78
35952;BME280;22035;51.406;16.194;2022-12-31T00:26:15;99559.22;;;27.15;20.82
35952;BME280;22035;51.406;16.194;2022-12-31T00:28:42;99557.78;;;27.17;20.80
35952;BME280;22035;51.406;16.194;2022-12-31T00:31:09;99561.99;;;27.18;20.88
35952;BME280;22035;51.406;16.194;2022-12-31T00:33:36;99564.83;;;27.17;20.81
35952;BME280;22035;51.406;16.194;2022-12-31T00:36:06;99563.98;;;27.19;20.80
35952;BME280;22035;51.406;16.194;2022-12-31T00:38:32;99564.13;;;27.18;20.80
35952;BME280;22035;51.406;16.194;2022-12-31T00:40:57;99554.86;;;27.19;20.77
35952;BME280;22035;51.406;16.194;2022-12-31T00:43:23;99555.97;;;27.20;20.78
35952;BME280;22035;51.406;16.194;2022-12-31T00:45:49;99566.65;;;27.21;20.77
35952;BME280;22035;51.406;16.194;2022-12-31T00:48:14;99568.50;;;27.23;20.76
35952;BME280;22035;51.406;16.194;2022-12-31T00:50:40;99564.42;;;27.20;20.78
35952;BME280;22035;51.406;16.194;2022-12-31T00:53:06;99559.87;;;27.21;20.77
35952;BME280;22035;51.406;16.194;2022-12-31T00:55:31;99558.01;;;27.20;20.79
35952;BME280;22035;51.406;16.194;2022-12-31T00:57:57;99549.07;;;27.24;20.74
35952;BME280;22035;51.406;16.194;2022-12-31T01:00:23;99545.33;;;27.19;20.78
35952;BME280;22035;51.406;16.194;2022-12-31T01:02:48;99551.64;;;27.20;20.78
35952;BME280;22035;51.406;16.194;2022-12-31T01:05:14;99554.34;;;27.23;20.76
35952;BME280;22035;51.406;16.194;2022-12-31T01:07:40;99558.63;;;27.20;20.78
35952;BME280;22035;51.406;16.194;2022-12-31T01:10:06;99563.93;;;27.19;20.80
35952;BME280;22035;51.406;16.194;2022-12-31T01:12:32;99557.28;;;27.17;20.81
35952;BME280;22035;51.406;16.194;2022-12-31T01:14:58;99564.26;;;27.19;20.80
35952;BME280;22035;51.406;16.194;2022-12-31T01:17:23;99568.92;;;27.18;20.81
35952;BME280;22035;51.406;16.194;2022-12-31T01:19:49;99571.25;;;27.19;20.81
35952;BME280;22035;51.406;16.194;2022-12-31T01:22:15;99574.96;;;27.21;20.79
35952;BME280;22035;51.406;16.194;2022-12-31T01:24:41;99575.92;;;27.20;20.79
35952;BME280;22035;51.406;16.194;2022-12-31T01:27:06;99575.07;;;27.23;20.76
35952;BME280;22035;51.406;16.194;2022-12-31T01:29:32;99577.73;;;27.20;20.79
35952;BME280;22035;51.406;16.194;2022-12-31T01:31:58;99575.24;;;27.19;20.81
35952;BME280;22035;51.406;16.194;2022-12-31T01:34:23;99574.76;;;27.20;20.79
35952;BME280;22035;51.406;16.194;2022-12-31T01:36:49;99579.29;;;27.21;20.79
35952;BME280;22035;51.406;16.194;2022-12-31T01:39:16;99581.06;;;27.16;20.85
35952;BME280;22035;51.406;16.194;2022-12-31T01:41:44;99583.55;;;27.20;20.81
35952;BME280;22035;51.406;16.194;2022-12-31T01:45:14;99586.34;;;27.22;20.79
35952;BME280;22035;51.406;16.194;2022-12-31T01:47:42;99587.73;;;27.22;20.77
35952;BME280;22035;51.406;16.194;2022-12-31T01:50:12;99590.61;;;27.21;20.79
35952;BME280;22035;51.406;16.194;2022-12-31T01:52:42;99588.06;;;27.22;20.79
35952;BME280;22035;51.406;16.194;2022-12-31T01:55:18;99588.67;;;27.20;20.80
35952;BME280;22035;51.406;16.194;2022-12-31T01:57:47;99595.89;;;27.23;20.77
35952;BME280;22035;51.406;16.194;2022-12-31T02:00:14;99595.21;;;27.21;20.81
35952;BME280;22035;51.406;16.194;2022-12-31T02:02:40;99594.26;;;27.22;20.79
35952;BME280;22035;51.406;16.194;2022-12-31T02:05:12;99593.16;;;27.19;20.82
35952;BME280;22035;51.406;16.194;2022-12-31T02:07:42;99593.77;;;27.21;20.79
35952;BME280;22035;51.406;16.194;2022-12-31T02:10:08;99595.67;;;27.21;20.80
35952;BME280;22035;51.406;16.194;2022-12-31T02:12:34;99603.49;;;27.21;20.81
35952;BME280;22035;51.406;16.194;2022-12-31T02:15:01;99605.70;;;27.19;20.83
35952;BME280;22035;51.406;16.194;2022-12-31T02:17:32;99602.24;;;27.20;20.82
35952;BME280;22035;51.406;16.194;2022-12-31T02:20:16;99601.29;;;27.22;20.81
35952;BME280;22035;51.406;16.194;2022-12-31T02:23:06;99605.96;;;27.23;20.79
35952;BME280;22035;51.406;16.194;2022-12-31T02:25:48;99602.90;;;27.18;20.85
35952;BME280;22035;51.406;16.194;2022-12-31T02:28:29;99606.05;;;27.23;20.80
35952;BME280;22035;51.406;16.194;2022-12-31T02:31:02;99602.13;;;27.20;20.83
35952;BME280;22035;51.406;16.194;2022-12-31T02:33:32;99602.81;;;27.22;20.80
35952;BME280;22035;51.406;16.194;2022-12-31T02:36:02;99599.26;;;27.22;20.81
35952;BME280;22035;51.406;16.194;2022-12-31T02:38:33;99598.06;;;27.19;20.84
35952;BME280;22035;51.406;16.194;2022-12-31T02:41:00;99605.94;;;27.23;20.81
35952;BME280;22035;51.406;16.194;2022-12-31T02:43:26;99614.08;;;27.22;20.82
35952;BME280;22035;51.406;16.194;2022-12-31T02:46:00;99618.75;;;27.20;20.83
35952;BME280;22035;51.406;16.194;2022-12-31T02:48:37;99623.99;;;27.22;20.82
35952;BME280;22035;51.406;16.194;2022-12-31T02:51:15;99624.65;;;27.21;20.84
35952;BME280;22035;51.406;16.194;2022-12-31T02:53:53;99618.92;;;27.24;20.80
35952;BME280;22035;51.406;16.194;2022-12-31T02:56:31;99627.36;;;27.25;20.79
35952;BME280;22035;51.406;16.194;2022-12-31T02:59:03;99631.67;;;27.22;20.83
35952;BME280;22035;51.406;16.194;2022-12-31T03:01:36;99631.79;;;27.26;20.78
35952;BME280;22035;51.406;16.194;2022-12-31T03:04:04;99626.37;;;27.24;20.80
35952;BME280;22035;51.406;16.194;2022-12-31T03:06:30;99630.94;;;27.22;20.83
35952;BME280;22035;51.406;16.194;2022-12-31T03:08:56;99634.55;;;27.20;20.86
35952;BME280;22035;51.406;16.194;2022-12-31T03:11:21;99637.89;;;27.22;20.84
35952;BME280;22035;51.406;16.194;2022-12-31T03:13:47;99649.82;;;27.25;20.80
35952;BME280;22035;51.406;16.194;2022-12-31T03:16:13;99650.69;;;27.25;20.80
35952;BME280;22035;51.406;16.194;2022-12-31T03:18:38;99646.26;;;27.21;20.86
35952;BME280;22035;51.406;16.194;2022-12-31T03:21:10;99644.83;;;27.20;20.87
35952;BME280;22035;51.406;16.194;2022-12-31T03:23:39;99650.56;;;27.25;20.81
35952;BME280;22035;51.406;16.194;2022-12-31T03:26:07;99645.79;;;27.23;20.84
35952;BME280;22035;51.406;16.194;2022-12-31T03:28:33;99640.85;;;27.23;20.84
35952;BME280;22035;51.406;16.194;2022-12-31T03:31:00;99652.23;;;27.21;20.86
35952;BME280;22035;51.406;16.194;2022-12-31T03:33:30;99650.09;;;27.25;20.83
35952;BME280;22035;51.406;16.194;2022-12-31T03:35:56;99641.76;;;27.23;20.83
35952;BME280;22035;51.406;16.194;2022-12-31T03:38:22;99638.99;;;27.26;20.81
35952;BME280;22035;51.406;16.194;2022-12-31T03:40:51;99641.10;;;27.27;20.80
35952;BME280;22035;51.406;16.194;2022-12-31T03:43:18;99636.65;;;27.24;20.91
35952;BME280;22035;51.406;16.194;2022-12-31T03:45:44;99639.52;;;27.24;20.84
35952;BME280;22035;51.406;16.194;2022-12-31T03:48:09;99633.56;;;27.24;20.84
35952;BME280;22035;51.406;16.194;2022-12-31T03:50:35;99636.67;;;27.23;20.85
35952;BME280;22035;51.406;16.194;2022-12-31T03:53:01;99636.24;;;27.25;20.84
35952;BME280;22035;51.406;16.194;2022-12-31T03:55:27;99635.60;;;27.24;20.84
35952;BME280;22035;51.406;16.194;2022-12-31T03:57:53;99631.38;;;27.23;20.87
35952;BME280;22035;51.406;16.194;2022-12-31T04:00:20;99619.72;;;27.22;20.87
35952;BME280;22035;51.406;16.194;2022-12-31T04:02:46;99608.49;;;27.27;20.81
35952;BME280;22035;51.406;16.194;2022-12-31T04:05:13;99614.57;;;27.25;20.84
35952;BME280;22035;51.406;16.194;2022-12-31T04:07:40;99617.77;;;27.22;20.88
35952;BME280;22035;51.406;16.194;2022-12-31T04:10:07;99621.07;;;27.26;20.84
35952;BME280;22035;51.406;16.194;2022-12-31T04:12:33;99632.40;;;27.31;20.80
35952;BME280;22035;51.406;16.194;2022-12-31T04:14:59;99633.18;;;27.26;20.85
35952;BME280;22035;51.406;16.194;2022-12-31T04:17:25;99631.14;;;27.27;20.83
35952;BME280;22035;51.406;16.194;2022-12-31T04:19:51;99628.77;;;27.31;20.80
35952;BME280;22035;51.406;16.194;2022-12-31T04:22:17;99625.92;;;27.32;20.79
35952;BME280;22035;51.406;16.194;2022-12-31T04:24:42;99626.64;;;27.26;20.85
35952;BME280;22035;51.406;16.194;2022-12-31T04:27:08;99621.84;;;27.27;20.89
35952;BME280;22035;51.406;16.194;2022-12-31T04:29:34;99620.13;;;27.32;20.80
35952;BME280;22035;51.406;16.194;2022-12-31T04:32:00;99626.52;;;27.27;20.84
35952;BME280;22035;51.406;16.194;2022-12-31T04:34:26;99620.62;;;27.27;20.83
35952;BME280;22035;51.406;16.194;2022-12-31T04:36:51;99611.90;;;27.29;20.82
35952;BME280;22035;51.406;16.194;2022-12-31T04:39:17;99615.40;;;27.27;20.84
35952;BME280;22035;51.406;16.194;2022-12-31T04:41:43;99625.01;;;27.26;20.85
35952;BME280;22035;51.406;16.194;2022-12-31T04:44:09;99628.49;;;27.27;20.85
35952;BME280;22035;51.406;16.194;2022-12-31T04:46:35;99635.51;;;27.28;20.85
35952;BME280;22035;51.406;16.194;2022-12-31T04:49:01;99646.59;;;27.26;20.87
35952;BME280;22035;51.406;16.194;2022-12-31T04:51:28;99647.71;;;27.27;20.86
35952;BME280;22035;51.406;16.194;2022-12-31T04:53:54;99651.98;;;27.26;20.86
35952;BME280;22035;51.406;16.194;2022-12-31T04:56:20;99654.48;;;27.28;20.85
35952;BME280;22035;51.406;16.194;2022-12-31T04:58:46;99649.56;;;27.30;20.84
35952;BME280;22035;51.406;16.194;2022-12-31T05:01:13;99646.04;;;27.26;20.88
35952;BME280;22035;51.406;16.194;2022-12-31T05:03:39;99641.21;;;27.25;20.91
35952;BME280;22035;51.406;16.194;2022-12-31T05:06:07;99646.95;;;27.27;20.96
35952;BME280;22035;51.406;16.194;2022-12-31T05:08:33;99650.68;;;27.28;20.86
35952;BME280;22035;51.406;16.194;2022-12-31T05:10:59;99651.92;;;27.25;20.90
35952;BME280;22035;51.406;16.194;2022-12-31T05:13:25;99646.20;;;27.27;20.87
35952;BME280;22035;51.406;16.194;2022-12-31T05:15:51;99638.10;;;27.31;20.84
35952;BME280;22035;51.406;16.194;2022-12-31T05:18:17;99636.13;;;27.29;20.86
35952;BME280;22035;51.406;16.194;2022-12-31T05:20:43;99633.75;;;27.29;20.86
35952;BME280;22035;51.406;16.194;2022-12-31T05:23:09;99632.71;;;27.32;20.83
35952;BME280;22035;51.406;16.194;2022-12-31T05:25:35;99631.72;;;27.28;20.87
35952;BME280;22035;51.406;16.194;2022-12-31T05:28:01;99630.34;;;27.30;20.85
35952;BME280;22035;51.406;16.194;2022-12-31T05:30:26;99628.28;;;27.27;20.88
35952;BME280;22035;51.406;16.194;2022-12-31T05:32:52;99624.26;;;27.30;20.86
35952;BME280;22035;51.406;16.194;2022-12-31T05:35:18;99628.97;;;27.29;20.86
35952;BME280;22035;51.406;16.194;2022-12-31T05:37:44;99643.70;;;27.29;20.87
35952;BME280;22035;51.406;16.194;2022-12-31T05:40:10;99652.57;;;27.26;20.91
35952;BME280;22035;51.406;16.194;2022-12-31T05:42:36;99656.98;;;27.31;20.86
35952;BME280;22035;51.406;16.194;2022-12-31T05:45:02;99660.48;;;27.28;20.88
35952;BME280;22035;51.406;16.194;2022-12-31T05:47:28;99662.31;;;27.31;20.87
35952;BME280;22035;51.406;16.194;2022-12-31T05:49:53;99661.89;;;27.28;20.89
35952;BME280;22035;51.406;16.194;2022-12-31T05:52:19;99657.16;;;27.33;20.84
35952;BME280;22035;51.406;16.194;2022-12-31T05:54:45;99661.76;;;27.29;20.89
35952;BME280;22035;51.406;16.194;2022-12-31T05:57:11;99658.63;;;27.31;20.86
35952;BME280;22035;51.406;16.194;2022-12-31T05:59:37;99663.42;;;27.32;20.85
35952;BME280;22035;51.406;16.194;2022-12-31T06:02:03;99658.17;;;27.28;20.90
35952;BME280;22035;51.406;16.194;2022-12-31T06:04:28;99655.99;;;27.29;20.89
35952;BME280;22035;51.406;16.194;2022-12-31T06:06:54;99657.06;;;27.31;20.87
35952;BME280;22035;51.406;16.194;2022-12-31T06:09:21;99656.66;;;27.28;20.90
35952;BME280;22035;51.406;16.194;2022-12-31T06:11:46;99651.56;;;27.28;20.92
35952;BME280;22035;51.406;16.194;2022-12-31T06:14:12;99652.24;;;27.30;20.88
35952;BME280;22035;51.406;16.194;2022-12-31T06:16:39;99653.86;;;27.29;20.88
35952;BME280;22035;51.406;16.194;2022-12-31T06:19:05;99648.42;;;27.29;20.91
35952;BME280;22035;51.406;16.194;2022-12-31T06:21:31;99642.53;;;27.32;20.86
35952;BME280;22035;51.406;16.194;2022-12-31T06:23:57;99644.41;;;27.32;20.87
35952;BME280;22035;51.406;16.194;2022-12-31T06:26:23;99649.68;;;27.29;20.89
35952;BME280;22035;51.406;16.194;2022-12-31T06:28:49;99656.35;;;27.30;20.88
35952;BME280;22035;51.406;16.194;2022-12-31T06:31:15;99651.50;;;27.31;20.88
35952;BME280;22035;51.406;16.194;2022-12-31T06:33:41;99653.55;;;27.32;20.87
35952;BME280;22035;51.406;16.194;2022-12-31T06:36:10;99654.50;;;27.32;20.88
35952;BME280;22035;51.406;16.194;2022-12-31T06:38:38;99653.63;;;27.28;20.93
35952;BME280;22035;51.406;16.194;2022-12-31T06:41:05;99649.98;;;27.27;20.92
35952;BME280;22035;51.406;16.194;2022-12-31T06:43:31;99658.95;;;27.32;20.87
35952;BME280;22035;51.406;16.194;2022-12-31T06:45:59;99662.10;;;27.32;20.88
35952;BME280;22035;51.406;16.194;2022-12-31T06:48:24;99662.38;;;27.33;20.86
35952;BME280;22035;51.406;16.194;2022-12-31T06:50:50;99659.56;;;27.25;20.95
35952;BME280;22035;51.406;16.194;2022-12-31T06:53:16;99658.75;;;27.30;20.90
35952;BME280;22035;51.406;16.194;2022-12-31T06:55:42;99657.28;;;27.31;20.89
35952;BME280;22035;51.406;16.194;2022-12-31T06:58:10;99668.67;;;27.31;20.91
35952;BME280;22035;51.406;16.194;2022-12-31T07:00:38;99673.34;;;27.31;20.90
35952;BME280;22035;51.406;16.194;2022-12-31T07:03:16;99674.32;;;27.31;20.91
35952;BME280;22035;51.406;16.194;2022-12-31T07:05:46;99683.65;;;27.30;20.92
35952;BME280;22035;51.406;16.194;2022-12-31T07:08:23;99679.71;;;27.33;20.88
35952;BME280;22035;51.406;16.194;2022-12-31T07:11:01;99683.47;;;27.31;20.92
35952;BME280;22035;51.406;16.194;2022-12-31T07:13:57;99687.09;;;27.34;20.88
35952;BME280;22035;51.406;16.194;2022-12-31T07:16:35;99679.56;;;27.31;20.91
35952;BME280;22035;51.406;16.194;2022-12-31T07:19:16;99686.49;;;27.30;20.93
35952;BME280;22035;51.406;16.194;2022-12-31T07:21:44;99684.40;;;27.28;20.94
35952;BME280;22035;51.406;16.194;2022-12-31T07:24:11;99680.40;;;27.33;20.88
35952;BME280;22035;51.406;16.194;2022-12-31T07:26:47;99682.39;;;27.32;20.91
35952;BME280;22035;51.406;16.194;2022-12-31T07:29:18;99689.13;;;27.29;20.95
35952;BME280;22035;51.406;16.194;2022-12-31T07:31:56;99689.90;;;27.33;20.90
35952;BME280;22035;51.406;16.194;2022-12-31T07:34:31;99689.94;;;27.27;20.97
35952;BME280;22035;51.406;16.194;2022-12-31T07:37:07;99688.09;;;27.27;20.96
35952;BME280;22035;51.406;16.194;2022-12-31T07:39:42;99689.79;;;27.32;20.92
35952;BME280;22035;51.406;16.194;2022-12-31T07:42:16;99685.73;;;27.28;20.96
35952;BME280;22035;51.406;16.194;2022-12-31T07:44:52;99694.58;;;27.32;20.92
35952;BME280;22035;51.406;16.194;2022-12-31T07:47:23;99689.35;;;27.33;20.91
35952;BME280;22035;51.406;16.194;2022-12-31T07:49:50;99685.64;;;27.33;20.92
35952;BME280;22035;51.406;16.194;2022-12-31T07:52:16;99681.67;;;27.35;20.89
35952;BME280;22035;51.406;16.194;2022-12-31T07:54:42;99681.36;;;27.35;20.88
35952;BME280;22035;51.406;16.194;2022-12-31T07:57:09;99685.12;;;27.35;20.89
35952;BME280;22035;51.406;16.194;2022-12-31T07:59:47;99686.43;;;27.36;20.88
35952;BME280;22035;51.406;16.194;2022-12-31T08:02:23;99683.42;;;27.38;20.85
35952;BME280;22035;51.406;16.194;2022-12-31T08:04:59;99695.54;;;27.38;20.86
35952;BME280;22035;51.406;16.194;2022-12-31T08:07:35;99692.11;;;27.37;20.87
35952;BME280;22035;51.406;16.194;2022-12-31T08:10:10;99691.70;;;27.28;20.97
35952;BME280;22035;51.406;16.194;2022-12-31T08:12:40;99693.44;;;27.29;20.97
35952;BME280;22035;51.406;16.194;2022-12-31T08:15:12;99690.49;;;27.34;20.92
35952;BME280;22035;51.406;16.194;2022-12-31T08:17:38;99695.14;;;27.35;20.92
35952;BME280;22035;51.406;16.194;2022-12-31T08:20:05;99688.18;;;27.35;20.91
35952;BME280;22035;51.406;16.194;2022-12-31T08:22:44;99682.02;;;27.34;20.93
35952;BME280;22035;51.406;16.194;2022-12-31T08:25:21;99683.07;;;27.34;20.92
35952;BME280;22035;51.406;16.194;2022-12-31T08:27:59;99678.77;;;27.33;20.95
35952;BME280;22035;51.406;16.194;2022-12-31T08:30:35;99670.99;;;27.36;20.91
35952;BME280;22035;51.406;16.194;2022-12-31T08:33:12;99677.06;;;27.31;20.96
35952;BME280;22035;51.406;16.194;2022-12-31T08:35:50;99674.11;;;27.33;20.97
35952;BME280;22035;51.406;16.194;2022-12-31T08:38:28;99674.57;;;27.41;20.86
35952;BME280;22035;51.406;16.194;2022-12-31T08:41:02;99677.70;;;27.39;20.89
35952;BME280;22035;51.406;16.194;2022-12-31T08:43:38;99677.37;;;27.41;20.87
35952;BME280;22035;51.406;16.194;2022-12-31T08:46:12;99676.96;;;27.39;20.89
35952;BME280;22035;51.406;16.194;2022-12-31T08:48:42;99674.35;;;27.39;20.90
35952;BME280;22035;51.406;16.194;2022-12-31T08:51:14;99681.72;;;27.40;20.90
35952;BME280;22035;51.406;16.194;2022-12-31T08:53:42;99679.18;;;27.42;20.88
35952;BME280;22035;51.406;16.194;2022-12-31T08:56:21;99684.23;;;27.41;20.88
35952;BME280;22035;51.406;16.194;2022-12-31T08:58:58;99679.40;;;27.42;20.86
35952;BME280;22035;51.406;16.194;2022-12-31T09:01:29;99679.87;;;27.41;20.90
35952;BME280;22035;51.406;16.194;2022-12-31T09:04:07;99684.60;;;27.39;20.92
35952;BME280;22035;51.406;16.194;2022-12-31T09:06:42;99688.35;;;27.43;20.88
35952;BME280;22035;51.406;16.194;2022-12-31T09:09:15;99684.73;;;27.42;20.88
35952;BME280;22035;51.406;16.194;2022-12-31T09:11:53;99687.86;;;27.42;20.90
35952;BME280;22035;51.406;16.194;2022-12-31T09:14:39;99684.10;;;27.39;20.93
35952;BME280;22035;51.406;16.194;2022-12-31T09:17:14;99684.18;;;27.39;20.94
35952;BME280;22035;51.406;16.194;2022-12-31T09:19:49;99678.52;;;27.42;20.90
35952;BME280;22035;51.406;16.194;2022-12-31T09:22:15;99680.50;;;27.40;20.92
35952;BME280;22035;51.406;16.194;2022-12-31T09:24:41;99684.28;;;27.45;20.87
35952;BME280;22035;51.406;16.194;2022-12-31T09:27:13;99683.57;;;27.40;20.95
35952;BME280;22035;51.406;16.194;2022-12-31T09:29:50;99688.40;;;27.43;20.91
35952;BME280;22035;51.406;16.194;2022-12-31T09:32:26;99694.05;;;27.45;20.90
35952;BME280;22035;51.406;16.194;2022-12-31T09:34:59;99697.78;;;27.42;20.92
35952;BME280;22035;51.406;16.194;2022-12-31T09:37:36;99692.64;;;27.46;20.89
35952;BME280;22035;51.406;16.194;2022-12-31T09:40:21;99692.60;;;27.46;20.88
35952;BME280;22035;51.406;16.194;2022-12-31T09:43:07;99688.34;;;27.42;20.94
35952;BME280;22035;51.406;16.194;2022-12-31T09:45:54;99678.83;;;27.46;20.88
35952;BME280;22035;51.406;16.194;2022-12-31T09:48:59;99680.58;;;27.42;20.95
35952;BME280;22035;51.406;16.194;2022-12-31T09:51:37;99674.52;;;27.44;20.92
35952;BME280;22035;51.406;16.194;2022-12-31T09:54:21;99670.11;;;27.42;20.94
35952;BME280;22035;51.406;16.194;2022-12-31T09:57:05;99658.53;;;27.46;20.90
35952;BME280;22035;51.406;16.194;2022-12-31T09:59:41;99656.04;;;27.44;20.93
35952;BME280;22035;51.406;16.194;2022-12-31T10:02:19;99661.48;;;27.47;20.90
35952;BME280;22035;51.406;16.194;2022-12-31T10:04:57;99652.45;;;27.50;20.87
35952;BME280;22035;51.406;16.194;2022-12-31T10:07:34;99650.99;;;27.44;20.89
35952;BME280;22035;51.406;16.194;2022-12-31T10:10:10;99647.09;;;27.47;20.91
35952;BME280;22035;51.406;16.194;2022-12-31T10:12:52;99651.72;;;27.48;20.91
35952;BME280;22035;51.406;16.194;2022-12-31T10:15:48;99655.29;;;27.49;20.89
35952;BME280;22035;51.406;16.194;2022-12-31T10:18:31;99656.66;;;27.49;20.89
35952;BME280;22035;51.406;16.194;2022-12-31T10:21:09;99656.02;;;27.48;20.92
35952;BME280;22035;51.406;16.194;2022-12-31T10:23:54;99655.04;;;27.51;20.89
35952;BME280;22035;51.406;16.194;2022-12-31T10:26:36;99654.47;;;27.51;20.90
35952;BME280;22035;51.406;16.194;2022-12-31T10:29:14;99650.49;;;27.51;20.89
35952;BME280;22035;51.406;16.194;2022-12-31T10:31:57;99650.05;;;27.45;20.96
35952;BME280;22035;51.406;16.194;2022-12-31T10:34:29;99647.58;;;27.50;20.92
35952;BME280;22035;51.406;16.194;2022-12-31T10:37:04;99645.80;;;27.51;20.92
35952;BME280;22035;51.406;16.194;2022-12-31T10:39:42;99645.82;;;27.52;20.90
35952;BME280;22035;51.406;16.194;2022-12-31T10:42:28;99650.80;;;27.49;20.94
35952;BME280;22035;51.406;16.194;2022-12-31T10:45:29;99653.06;;;27.50;20.93
35952;BME280;22035;51.406;16.194;2022-12-31T10:48:22;99647.31;;;27.54;20.90
35952;BME280;22035;51.406;16.194;2022-12-31T10:51:08;99645.20;;;27.54;20.90
35952;BME280;22035;51.406;16.194;2022-12-31T10:55:18;99647.45;;;27.52;20.94
35952;BME280;22035;51.406;16.194;2022-12-31T10:59:11;99648.46;;;27.53;20.93
35952;BME280;22035;51.406;16.194;2022-12-31T11:01:47;99645.01;;;27.53;20.94
35952;BME280;22035;51.406;16.194;2022-12-31T11:04:44;99645.42;;;27.53;20.95
35952;BME280;22035;51.406;16.194;2022-12-31T11:07:31;99636.30;;;27.54;20.94
35952;BME280;22035;51.406;16.194;2022-12-31T11:10:17;99642.10;;;27.54;20.94
35952;BME280;22035;51.406;16.194;2022-12-31T11:13:17;99636.77;;;27.55;20.94
35952;BME280;22035;51.406;16.194;2022-12-31T11:16:02;99628.74;;;27.58;20.92
35952;BME280;22035;51.406;16.194;2022-12-31T11:18:37;99627.66;;;27.57;20.94
35952;BME280;22035;51.406;16.194;2022-12-31T11:21:15;99622.61;;;27.56;20.94
35952;BME280;22035;51.406;16.194;2022-12-31T11:23:49;99623.80;;;27.56;20.96
35952;BME280;22035;51.406;16.194;2022-12-31T11:26:21;99619.85;;;27.56;20.97
35952;BME280;22035;51.406;16.194;2022-12-31T11:29:02;99622.45;;;27.58;20.96
35952;BME280;22035;51.406;16.194;2022-12-31T11:31:53;99622.77;;;27.57;20.97
35952;BME280;22035;51.406;16.194;2022-12-31T11:35:06;99614.46;;;27.59;20.96
35952;BME280;22035;51.406;16.194;2022-12-31T11:37:43;99619.41;;;27.63;20.93
35952;BME280;22035;51.406;16.194;2022-12-31T11:40:46;99615.60;;;27.59;20.97
35952;BME280;22035;51.406;16.194;2022-12-31T11:43:26;99606.65;;;27.60;20.97
35952;BME280;22035;51.406;16.194;2022-12-31T11:46:16;99610.33;;;27.60;20.98
35952;BME280;22035;51.406;16.194;2022-12-31T11:48:56;99611.49;;;27.60;20.99
35952;BME280;22035;51.406;16.194;2022-12-31T11:51:41;99620.32;;;27.60;20.99
35952;BME280;22035;51.406;16.194;2022-12-31T11:54:28;99622.18;;;27.62;20.98
35952;BME280;22035;51.406;16.194;2022-12-31T11:57:01;99618.45;;;27.64;20.97
35952;BME280;22035;51.406;16.194;2022-12-31T11:59:29;99611.72;;;27.66;20.96
35952;BME280;22035;51.406;16.194;2022-12-31T12:02:00;99625.73;;;27.63;21.00
35952;BME280;22035;51.406;16.194;2022-12-31T12:04:27;99623.05;;;27.65;20.98
35952;BME280;22035;51.406;16.194;2022-12-31T12:06:53;99635.39;;;27.62;21.03
35952;BME280;22035;51.406;16.194;2022-12-31T12:09:26;99620.00;;;27.63;21.01
35952;BME280;22035;51.406;16.194;2022-12-31T12:11:57;99619.35;;;27.65;21.00
35952;BME280;22035;51.406;16.194;2022-12-31T12:14:30;99610.79;;;27.67;20.98
35952;BME280;22035;51.406;16.194;2022-12-31T12:16:57;99615.34;;;27.59;21.08
35952;BME280;22035;51.406;16.194;2022-12-31T12:19:26;99617.78;;;27.64;21.04
35952;BME280;22035;51.406;16.194;2022-12-31T12:21:52;99619.89;;;27.68;21.01
35952;BME280;22035;51.406;16.194;2022-12-31T12:24:20;99618.74;;;27.66;21.03
35952;BME280;22035;51.406;16.194;2022-12-31T12:26:46;99619.26;;;27.67;21.03
35952;BME280;22035;51.406;16.194;2022-12-31T12:29:17;99627.03;;;27.68;21.04
35952;BME280;22035;51.406;16.194;2022-12-31T12:31:54;99625.62;;;27.71;21.01
35952;BME280;22035;51.406;16.194;2022-12-31T12:34:22;99624.21;;;27.71;21.02
35952;BME280;22035;51.406;16.194;2022-12-31T12:36:49;99620.95;;;27.70;21.04
35952;BME280;22035;51.406;16.194;2022-12-31T12:39:19;99620.34;;;27.70;21.07
35952;BME280;22035;51.406;16.194;2022-12-31T12:41:45;99623.54;;;27.70;21.07
35952;BME280;22035;51.406;16.194;2022-12-31T12:44:14;99628.48;;;27.73;21.04
35952;BME280;22035;51.406;16.194;2022-12-31T12:46:43;99620.66;;;27.72;21.06
35952;BME280;22035;51.406;16.194;2022-12-31T12:49:18;99618.83;;;27.64;21.17
35952;BME280;22035;51.406;16.194;2022-12-31T12:51:59;99621.70;;;27.66;21.17
35952;BME280;22035;51.406;16.194;2022-12-31T12:54:36;99623.23;;;27.67;21.17
35952;BME280;22035;51.406;16.194;2022-12-31T12:57:12;99623.56;;;27.70;21.16
35952;BME280;22035;51.406;16.194;2022-12-31T12:59:52;99623.72;;;27.68;21.19
35952;BME280;22035;51.406;16.194;2022-12-31T13:02:34;99623.40;;;27.74;21.15
35952;BME280;22035;51.406;16.194;2022-12-31T13:05:18;99625.49;;;27.73;21.18
35952;BME280;22035;51.406;16.194;2022-12-31T13:07:51;99627.72;;;27.75;21.16
35952;BME280;22035;51.406;16.194;2022-12-31T13:10:32;99617.07;;;27.75;21.18
35952;BME280;22035;51.406;16.194;2022-12-31T13:13:06;99622.71;;;27.75;21.19
35952;BME280;22035;51.406;16.194;2022-12-31T13:15:43;99632.50;;;27.76;21.20
35952;BME280;22035;51.406;16.194;2022-12-31T13:18:15;99639.23;;;27.79;21.19